createdAt,value
2022-10-01T00:04:08.786Z,99380.03
2022-10-01T00:09:10.495Z,99387.56
2022-10-01T00:14:12.176Z,99381.91
2022-10-01T00:19:15.102Z,99384.31
2022-10-01T00:24:16.883Z,99377.59
2022-10-01T00:29:18.556Z,99371.94
2022-10-01T00:34:20.265Z,99381.00
2022-10-01T00:39:22.178Z,99366.47
2022-10-01T00:44:28.132Z,99377.34
2022-10-01T00:49:34.312Z,99374.88
2022-10-01T00:54:51.169Z,99374.13
2022-10-01T00:59:56.922Z,99361.38
2022-10-01T01:04:59.307Z,99366.22
2022-10-01T01:10:02.045Z,99358.66
2022-10-01T01:15:04.837Z,99362.56
2022-10-01T01:20:28.864Z,99358.53
2022-10-01T01:25:40.157Z,99338.91
2022-10-01T01:30:43.412Z,99336.78
2022-10-01T01:35:52.210Z,99326.69
2022-10-01T01:41:00.744Z,99322.56
2022-10-01T01:46:06.195Z,99321.34
2022-10-01T01:51:33.022Z,99326.09
2022-10-01T01:56:35.821Z,99321.38
2022-10-01T02:01:39.651Z,99312.88
2022-10-01T02:07:05.494Z,99319.81
2022-10-01T02:12:31.842Z,99318.59
2022-10-01T02:18:07.014Z,99306.41
2022-10-01T02:23:15.069Z,99307.09
2022-10-01T02:28:21.224Z,99300.22
2022-10-01T02:33:31.061Z,99299.75
2022-10-01T02:38:37.891Z,99297.06
2022-10-01T02:43:48.430Z,99290.59
2022-10-01T02:48:51.397Z,99290.31
2022-10-01T02:54:01.391Z,99286.41
2022-10-01T02:59:03.132Z,99275.72
2022-10-01T03:04:04.809Z,99278.03
2022-10-01T03:09:08.810Z,99281.53
2022-10-01T03:14:11.217Z,99270.53
2022-10-01T03:19:12.957Z,99275.31
2022-10-01T03:24:14.811Z,99272.03
2022-10-01T03:29:16.660Z,99263.81
2022-10-01T03:34:18.784Z,99270.06
2022-10-01T03:39:20.563Z,99280.06
2022-10-01T03:44:22.273Z,99273.97
2022-10-01T03:49:23.979Z,99276.53
2022-10-01T03:54:26.377Z,99263.81
2022-10-01T03:59:28.185Z,99263.19
2022-10-01T04:04:29.851Z,99263.25
2022-10-01T04:09:31.534Z,99254.88
2022-10-01T04:14:33.232Z,99246.03
2022-10-01T04:19:34.975Z,99239.41
2022-10-01T04:24:36.651Z,99242.09
2022-10-01T04:29:40.397Z,99238.81
2022-10-01T04:34:53.931Z,99246.47
2022-10-01T04:39:55.587Z,99242.88
2022-10-01T04:44:57.429Z,99237.38
2022-10-01T04:49:59.127Z,99240.91
2022-10-01T04:55:01.282Z,99233.59
2022-10-01T05:00:05.335Z,99225.91
2022-10-01T05:05:07.885Z,99231.38
2022-10-01T05:10:12.646Z,99223.59
2022-10-01T05:15:16.209Z,99220.28
2022-10-01T05:20:23.724Z,99224.19
2022-10-01T05:25:25.441Z,99223.72
2022-10-01T05:30:27.195Z,99227.75
2022-10-01T05:35:29.443Z,99220.59
2022-10-01T05:40:31.180Z,99208.03
2022-10-01T05:45:33.670Z,99208.00
2022-10-01T05:50:40.267Z,99213.94
2022-10-01T05:55:41.990Z,99195.88
2022-10-01T06:00:43.955Z,99196.28
2022-10-01T06:05:46.160Z,99194.44
2022-10-01T06:10:48.380Z,99181.94
2022-10-01T06:15:53.181Z,99186.69
2022-10-01T06:20:54.871Z,99169.97
2022-10-01T06:25:59.912Z,99161.06
2022-10-01T06:31:02.543Z,99170.19
2022-10-01T06:36:04.983Z,99157.72
2022-10-01T06:41:06.719Z,99154.16
2022-10-01T06:46:08.413Z,99149.91
2022-10-01T06:51:10.198Z,99149.94
2022-10-01T06:56:11.849Z,99149.88
2022-10-01T07:01:13.545Z,99133.78
2022-10-01T07:06:15.283Z,99121.81
2022-10-01T07:11:16.946Z,99120.81
2022-10-01T07:16:18.629Z,99118.06
2022-10-01T07:21:20.309Z,99111.75
2022-10-01T07:26:21.951Z,99100.66
2022-10-01T07:31:24.499Z,99098.53
2022-10-01T07:36:26.514Z,99093.97
2022-10-01T07:41:28.268Z,99094.31
2022-10-01T07:46:34.001Z,99091.56
2022-10-01T07:51:39.005Z,99094.59
2022-10-01T07:56:41.727Z,99094.31
2022-10-01T08:01:43.459Z,99079.13
2022-10-01T08:06:49.040Z,99066.81
2022-10-01T08:11:50.789Z,99069.72
2022-10-01T08:16:55.848Z,99058.66
2022-10-01T08:21:57.567Z,99060.66
2022-10-01T08:26:59.243Z,99061.91
2022-10-01T08:32:01.117Z,99058.41
2022-10-01T08:37:02.858Z,99038.06
2022-10-01T08:42:27.149Z,99041.41
2022-10-01T08:47:35.096Z,99033.47
2022-10-01T08:52:57.228Z,99032.63
2022-10-01T08:58:02.487Z,99026.53
2022-10-01T09:03:07.123Z,99015.69
2022-10-01T09:08:44.438Z,99012.75
2022-10-01T09:14:04.208Z,99002.25
2022-10-01T09:19:26.854Z,98994.25
2022-10-01T09:24:44.941Z,98979.88
2022-10-01T09:29:51.612Z,98977.16
2022-10-01T09:34:54.499Z,98968.19
2022-10-01T09:40:27.248Z,98952.53
2022-10-01T09:45:29.314Z,98939.94
2022-10-01T09:50:39.845Z,98929.75
2022-10-01T09:55:44.930Z,98928.47
2022-10-01T10:00:48.378Z,98911.63
2022-10-01T10:05:50.878Z,98934.78
2022-10-01T10:10:58.946Z,98914.06
2022-10-01T10:16:15.623Z,98902.19
2022-10-01T10:21:21.569Z,98905.09
2022-10-01T10:26:32.855Z,98920.59
2022-10-01T10:31:42.026Z,98911.41
2022-10-01T10:36:45.764Z,98915.31
2022-10-01T10:41:50.384Z,98922.03
2022-10-01T10:46:53.992Z,98910.25
2022-10-01T10:52:01.020Z,98917.69
2022-10-01T10:57:21.198Z,98915.00
2022-10-01T11:02:26.653Z,98914.56
2022-10-01T11:07:29.927Z,98893.56
2022-10-01T11:12:58.371Z,98888.81
2022-10-01T11:18:10.656Z,98894.28
2022-10-01T11:23:27.684Z,98895.91
2022-10-01T11:28:56.669Z,98881.81
2022-10-01T11:34:12.568Z,98883.00
2022-10-01T11:39:17.864Z,98885.44
2022-10-01T11:44:26.740Z,98876.94
2022-10-01T11:49:42.415Z,98888.84
2022-10-01T11:55:22.084Z,98891.50
2022-10-01T12:00:27.250Z,98891.66
2022-10-01T12:05:32.283Z,98900.91
2022-10-01T12:11:21.606Z,98893.63
2022-10-01T12:16:29.570Z,98886.38
2022-10-01T12:21:39.529Z,98887.19
2022-10-01T12:27:02.806Z,98871.72
2022-10-01T12:32:36.747Z,98874.38
2022-10-01T12:38:19.919Z,98858.84
2022-10-01T12:43:36.596Z,98845.44
2022-10-01T12:48:54.868Z,98832.47
2022-10-01T12:54:04.642Z,98824.22
2022-10-01T12:59:12.901Z,98837.88
2022-10-01T13:04:35.458Z,98844.13
2022-10-01T13:09:53.392Z,98849.13
2022-10-01T13:14:56.164Z,98846.84
2022-10-01T13:20:13.904Z,98850.41
2022-10-01T13:25:30.552Z,98856.63
2022-10-01T13:30:51.922Z,98853.91
2022-10-01T13:36:02.368Z,98838.94
2022-10-01T13:41:14.299Z,98842.28
2022-10-01T13:46:16.064Z,98840.81
2022-10-01T13:51:17.943Z,98840.25
2022-10-01T13:56:36.207Z,98844.88
2022-10-01T14:01:39.981Z,98847.75
2022-10-01T14:06:58.905Z,98848.28
2022-10-01T14:12:38.096Z,98844.59
2022-10-01T14:17:41.751Z,98845.66
2022-10-01T14:23:13.019Z,98849.63
2022-10-01T14:28:31.838Z,98845.72
2022-10-01T14:34:10.923Z,98838.03
2022-10-01T14:39:16.939Z,98845.72
2022-10-01T14:44:37.275Z,98847.78
2022-10-01T14:49:39.081Z,98846.72
2022-10-01T14:54:47.228Z,98839.06
2022-10-01T14:59:49.120Z,98845.25
2022-10-01T15:04:53.350Z,98843.41
2022-10-01T15:10:05.629Z,98840.94
2022-10-01T15:15:28.897Z,98843.81
2022-10-01T15:20:30.967Z,98849.47
2022-10-01T15:25:32.828Z,98855.03
2022-10-01T15:30:36.142Z,98841.94
2022-10-01T15:35:37.900Z,98842.59
2022-10-01T15:40:42.765Z,98848.38
2022-10-01T15:45:44.447Z,98831.75
2022-10-01T15:50:59.395Z,98850.03
2022-10-01T15:56:10.666Z,98852.31
2022-10-01T16:01:20.119Z,98852.13
2022-10-01T16:06:35.923Z,98849.03
2022-10-01T16:11:56.673Z,98865.63
2022-10-01T16:17:16.686Z,98863.34
2022-10-01T16:22:33.524Z,98869.78
2022-10-01T16:27:48.305Z,98874.13
2022-10-01T16:32:50.228Z,98884.69
2022-10-01T16:37:55.214Z,98892.75
2022-10-01T16:42:59.549Z,98891.53
2022-10-01T16:48:02.213Z,98897.75
2022-10-01T16:53:04.434Z,98911.03
2022-10-01T16:58:06.912Z,98905.84
2022-10-01T17:03:15.688Z,98904.81
2022-10-01T17:08:17.458Z,98919.13
2022-10-01T17:13:19.360Z,98921.81
2022-10-01T17:18:21.426Z,98933.84
2022-10-01T17:23:23.249Z,98933.84
2022-10-01T17:28:25.068Z,98939.44
2022-10-01T17:33:28.737Z,98941.94
2022-10-01T17:38:30.387Z,98945.47
2022-10-01T17:43:32.143Z,98949.22
2022-10-01T17:48:33.832Z,98950.28
2022-10-01T17:53:42.108Z,98958.13
2022-10-01T17:58:45.866Z,98966.47
2022-10-01T18:03:52.187Z,98972.91
2022-10-01T18:08:56.281Z,98968.75
2022-10-01T18:13:58.692Z,98986.19
2022-10-01T18:24:23.429Z,98996.53
2022-10-01T18:29:27.549Z,98993.44
2022-10-01T18:34:38.429Z,98998.00
2022-10-01T18:39:44.680Z,98989.25
2022-10-01T18:44:52.586Z,98998.19
2022-10-01T18:49:57.849Z,98987.63
2022-10-01T18:55:21.124Z,98993.84
2022-10-01T19:00:23.509Z,99002.59
2022-10-01T19:05:43.525Z,99011.16
2022-10-01T19:11:08.725Z,99017.97
2022-10-01T19:16:22.589Z,99018.41
2022-10-01T19:21:37.298Z,99030.88
2022-10-01T19:26:58.293Z,99034.75
2022-10-01T19:32:03.867Z,99043.06
2022-10-01T19:37:16.172Z,99032.91
2022-10-01T19:42:24.214Z,99048.44
2022-10-01T19:47:34.726Z,99050.50
2022-10-01T19:52:40.014Z,99059.81
2022-10-01T19:57:43.720Z,99074.38
2022-10-01T20:02:54.675Z,99075.38
2022-10-01T20:08:15.908Z,99092.16
2022-10-01T20:13:51.707Z,99099.81
2022-10-01T20:19:04.693Z,99121.03
2022-10-01T20:24:29.181Z,99126.81
2022-10-01T20:30:09.002Z,99137.81
2022-10-01T20:35:35.380Z,99151.94
2022-10-01T20:40:53.291Z,99168.13
2022-10-01T20:45:55.521Z,99178.25
2022-10-01T20:51:04.593Z,99180.06
2022-10-01T20:56:20.927Z,99184.25
2022-10-01T21:01:25.780Z,99191.69
2022-10-01T21:06:42.257Z,99205.16
2022-10-01T21:11:55.202Z,99208.28
2022-10-01T21:17:30.228Z,99226.50
2022-10-01T21:23:06.637Z,99226.84
2022-10-01T21:28:15.564Z,99232.22
2022-10-01T21:33:38.608Z,99239.81
2022-10-01T21:38:49.020Z,99249.88
2022-10-01T21:43:56.591Z,99265.69
2022-10-01T21:49:03.735Z,99271.59
2022-10-01T21:54:40.136Z,99281.88
2022-10-01T21:59:59.836Z,99287.81
2022-10-01T22:05:12.622Z,99299.38
2022-10-01T22:10:16.908Z,99301.25
2022-10-01T22:15:31.354Z,99308.56
2022-10-01T22:20:37.550Z,99310.47
2022-10-01T22:25:46.714Z,99326.41
2022-10-01T22:30:51.481Z,99339.69
2022-10-01T22:36:00.565Z,99347.25
2022-10-01T22:41:28.429Z,99354.53
2022-10-01T22:46:32.936Z,99365.34
2022-10-01T22:51:49.845Z,99384.03
2022-10-01T22:57:01.090Z,99381.59
2022-10-01T23:02:28.776Z,99394.16
2022-10-01T23:07:36.565Z,99391.66
2022-10-01T23:13:07.513Z,99398.16
2022-10-01T23:18:40.892Z,99400.63
2022-10-01T23:23:56.503Z,99420.13
2022-10-01T23:29:28.989Z,99422.66
2022-10-01T23:34:33.369Z,99423.31
2022-10-01T23:39:46.946Z,99433.63
2022-10-01T23:45:18.637Z,99436.97
2022-10-01T23:50:39.888Z,99448.56
2022-10-01T23:56:23.905Z,99461.72
